Time;durP1;ratioP1;P1;durP2;ratioP2;P2;SDS_P1;SDS_P2;PMS_P1;PMS_P2;Temp;Humidity;BMP_temperature;BMP_pressure;BME280_temperature;BME280_humidity;BME280_pressure;Samples;Min_cycle;Max_cycle;Signal;HPM_P1;HPM_P2
2021/12/03 00:00:25;;;;;;;12.80;7.53;;;2.10;99.90;;;;;;5060273;28;20035;-86
2021/12/03 00:02:51;;;;;;;11.17;6.33;;;2.10;99.90;;;;;;5060551;28;20085;-85
2021/12/03 00:05:17;;;;;;;12.33;6.60;;;2.00;99.90;;;;;;5076890;28;20032;-86
2021/12/03 00:07:43;;;;;;;12.97;6.87;;;2.10;99.90;;;;;;5094978;28;20443;-85
2021/12/03 00:10:11;;;;;;;11.93;6.83;;;2.00;99.90;;;;;;5060172;28;20070;-85
2021/12/03 00:12:37;;;;;;;11.53;6.90;;;2.00;99.90;;;;;;5060079;28;20028;-85
2021/12/03 00:15:05;;;;;;;11.33;6.27;;;2.00;99.90;;;;;;5060060;28;20034;-85
2021/12/03 00:17:31;;;;;;;12.00;6.60;;;2.00;99.90;;;;;;5094990;28;20469;-85
2021/12/03 00:19:56;;;;;;;14.37;6.60;;;2.00;99.90;;;;;;5076926;28;20024;-85
2021/12/03 00:22:22;;;;;;;15.00;6.83;;;2.00;99.90;;;;;;5076830;28;20028;-86
2021/12/03 00:24:48;;;;;;;15.17;6.93;;;2.00;99.90;;;;;;5061016;28;20035;-86
2021/12/03 00:27:14;;;;;;;12.20;7.57;;;2.00;99.90;;;;;;5079578;28;20077;-85
2021/12/03 00:29:40;;;;;;;12.60;6.87;;;2.00;99.90;;;;;;5062667;28;20020;-88
2021/12/03 00:32:07;;;;;;;13.40;7.43;;;2.00;99.90;;;;;;5079853;28;20388;-87
2021/12/03 00:34:32;;;;;;;14.67;8.00;;;2.00;99.90;;;;;;5079776;28;20082;-87
2021/12/03 00:36:58;;;;;;;14.53;8.90;;;2.00;99.90;;;;;;5098486;28;20028;-87
2021/12/03 00:39:24;;;;;;;13.47;7.87;;;2.10;99.90;;;;;;5097611;28;20154;-85
2021/12/03 00:41:57;;;;;;;10.57;8.03;;;2.00;99.90;;;;;;5063028;28;20032;-86
2021/12/03 00:44:24;;;;;;;10.53;7.43;;;2.00;99.90;;;;;;5079604;28;20046;-87
2021/12/03 00:46:50;;;;;;;12.03;8.20;;;2.10;99.90;;;;;;5062926;28;20031;-86
2021/12/03 00:49:16;;;;;;;12.90;7.77;;;2.10;99.90;;;;;;5062682;28;20028;-85
2021/12/03 00:51:42;;;;;;;12.80;7.80;;;2.10;99.90;;;;;;5079896;28;20024;-86
2021/12/03 00:54:08;;;;;;;13.40;8.87;;;2.10;99.90;;;;;;5098412;28;20504;-86
2021/12/03 00:56:33;;;;;;;16.30;8.93;;;2.10;99.90;;;;;;5080046;28;20039;-85
2021/12/03 00:58:59;;;;;;;13.80;8.53;;;2.20;99.90;;;;;;5079619;28;20054;-85
2021/12/03 01:01:25;;;;;;;13.03;8.60;;;2.30;99.90;;;;;;5063673;28;20039;-85
2021/12/03 01:03:51;;;;;;;12.90;8.37;;;2.30;99.90;;;;;;5080298;28;20024;-85
2021/12/03 01:06:17;;;;;;;16.80;9.30;;;2.40;99.90;;;;;;5080467;28;20488;-85
2021/12/03 01:08:43;;;;;;;16.07;9.37;;;2.30;99.90;;;;;;5099208;28;20035;-87
2021/12/03 01:11:11;;;;;;;14.87;9.57;;;2.30;99.90;;;;;;5064350;28;20064;-86
2021/12/03 01:13:38;;;;;;;14.20;9.37;;;2.40;99.90;;;;;;5080753;28;20027;-85
2021/12/03 01:16:05;;;;;;;17.13;9.50;;;2.40;99.90;;;;;;5080565;28;20024;-87
2021/12/03 01:18:32;;;;;;;15.60;10.13;;;2.40;99.90;;;;;;5098604;28;20038;-85
2021/12/03 01:20:58;;;;;;;15.17;10.33;;;2.40;99.90;;;;;;5081420;28;20485;-86
2021/12/03 01:23:24;;;;;;;14.17;9.13;;;2.40;99.90;;;;;;5076817;28;20122;-86
2021/12/03 01:25:50;;;;;;;18.73;10.20;;;2.50;99.90;;;;;;5059496;28;20536;-86
2021/12/03 01:28:16;;;;;;;17.00;11.30;;;2.40;99.90;;;;;;5076132;28;20023;-86
2021/12/03 01:30:42;;;;;;;16.70;11.17;;;2.40;99.90;;;;;;5075840;28;20036;-86
2021/12/03 01:33:08;;;;;;;16.57;11.13;;;2.40;99.90;;;;;;5075839;28;20052;-86
2021/12/03 01:35:38;;;;;;;19.13;11.00;;;2.40;99.90;;;;;;5075922;28;20031;-86
2021/12/03 01:38:05;;;;;;;20.03;12.13;;;2.40;99.90;;;;;;5059752;28;20480;-87
2021/12/03 01:40:34;;;;;;;17.87;12.40;;;2.40;99.90;;;;;;5059460;28;20087;-85
2021/12/03 01:43:01;;;;;;;18.25;12.60;;;2.50;99.90;;;;;;5059807;28;20119;-85
2021/12/03 01:45:30;;;;;;;20.33;12.73;;;2.50;99.90;;;;;;5076117;28;20082;-86
2021/12/03 01:47:57;;;;;;;;;;;2.50;99.90;;;;;;5059426;28;20059;-88
2021/12/03 01:50:25;;;;;;;23.30;12.53;;;2.60;99.90;;;;;;5059579;28;19908;-83
2021/12/03 01:52:51;;;;;;;21.88;13.05;;;2.60;99.90;;;;;;5059622;28;20089;-85
2021/12/03 01:55:17;;;;;;;21.87;13.67;;;2.60;99.90;;;;;;5076029;28;20036;-86
2021/12/03 01:57:43;;;;;;;23.83;14.63;;;2.60;99.90;;;;;;5075669;28;20043;-85
2021/12/03 02:00:34;;;;;;;30.97;14.93;;;2.70;99.90;;;;;;5059348;28;20452;-86
2021/12/03 02:03:01;;;;;;;30.30;16.27;;;2.70;99.90;;;;;;5049996;28;20047;-85
2021/12/03 02:05:27;;;;;;;36.47;16.93;;;2.70;99.90;;;;;;5058592;28;20032;-85
2021/12/03 02:07:53;;;;;;;36.97;18.37;;;2.70;99.90;;;;;;5076179;28;20039;-85
2021/12/03 02:10:21;;;;;;;35.20;18.70;;;2.70;99.90;;;;;;5059088;28;20028;-86
2021/12/03 02:12:48;;;;;;;40.67;19.87;;;2.80;99.90;;;;;;5076816;28;20024;-86
2021/12/03 02:15:14;;;;;;;41.20;19.37;;;2.70;99.90;;;;;;5076235;28;20028;-85
2021/12/03 02:17:40;;;;;;;44.00;20.63;;;2.80;99.90;;;;;;5076166;28;20120;-85
2021/12/03 02:20:10;;;;;;;44.37;20.80;;;2.80;99.90;;;;;;5075807;28;20171;-85
2021/12/03 02:22:37;;;;;;;44.63;20.13;;;2.80;99.90;;;;;;5094561;28;20069;-85
2021/12/03 02:25:06;;;;;;;40.47;20.27;;;2.80;99.90;;;;;;5076042;28;20139;-85
2021/12/03 02:27:32;;;;;;;43.67;22.20;;;2.80;99.90;;;;;;5094484;28;20461;-86
2021/12/03 02:29:58;;;;;;;47.03;22.07;;;2.80;99.90;;;;;;5059835;28;20039;-86
2021/12/03 02:32:24;;;;;;;47.27;22.63;;;2.90;99.90;;;;;;5076188;28;20111;-85
2021/12/03 02:34:49;;;;;;;48.63;22.90;;;2.90;99.90;;;;;;5095156;28;20087;-85
2021/12/03 02:37:15;;;;;;;51.97;24.20;;;2.90;99.90;;;;;;5076864;28;20086;-85
2021/12/03 02:39:41;;;;;;;49.13;22.60;;;2.90;99.90;;;;;;5076627;28;20028;-85
2021/12/03 02:42:07;;;;;;;51.97;23.30;;;2.90;99.90;;;;;;5076575;28;20392;-85
2021/12/03 02:44:33;;;;;;;54.13;25.27;;;2.90;99.90;;;;;;5059668;28;20042;-86
2021/12/03 02:46:58;;;;;;;48.07;23.23;;;2.90;99.90;;;;;;5076704;28;20031;-85
2021/12/03 02:49:24;;;;;;;48.17;23.87;;;3.00;99.90;;;;;;5059840;28;20051;-87
2021/12/03 02:51:50;;;;;;;48.87;23.63;;;3.00;99.90;;;;;;5059872;28;20028;-86
2021/12/03 02:54:16;;;;;;;49.30;23.20;;;3.00;99.90;;;;;;5076004;28;20059;-85
2021/12/03 02:56:41;;;;;;;44.67;23.43;;;3.00;99.90;;;;;;5059589;28;20042;-85
2021/12/03 02:59:07;;;;;;;48.80;23.37;;;3.00;99.90;;;;;;5059217;28;20038;-85
2021/12/03 03:01:33;;;;;;;48.03;23.33;;;3.10;99.90;;;;;;5076434;28;20032;-86
2021/12/03 03:03:59;;;;;;;49.97;23.87;;;3.10;99.90;;;;;;5060085;28;20123;-85
2021/12/03 03:06:26;;;;;;;47.77;22.57;;;3.00;99.90;;;;;;5095911;28;20021;-86
2021/12/03 03:08:52;;;;;;;49.00;24.13;;;3.10;99.90;;;;;;5059374;28;20051;-86
2021/12/03 03:11:21;;;;;;;46.20;23.43;;;3.10;99.90;;;;;;5095308;28;20024;-85
2021/12/03 03:13:47;;;;;;;46.72;23.85;;;3.20;99.90;;;;;;5076710;28;20028;-87
2021/12/03 03:16:15;;;;;;;49.80;23.43;;;3.20;99.90;;;;;;5078652;28;20080;-86
2021/12/03 03:18:41;;;;;;;50.07;22.93;;;3.20;99.90;;;;;;5063208;28;20035;-85
2021/12/03 03:21:07;;;;;;;44.07;22.17;;;3.20;99.90;;;;;;5099112;28;20484;-86
2021/12/03 03:23:34;;;;;;;37.13;20.27;;;3.20;99.90;;;;;;5063779;28;20162;-85
2021/12/03 03:26:01;;;;;;;41.57;21.30;;;3.30;99.90;;;;;;5064317;28;20031;-87
2021/12/03 03:28:28;;;;;;;41.03;21.70;;;3.20;99.90;;;;;;5080289;28;20036;-87
2021/12/03 03:30:56;;;;;;;44.33;21.60;;;3.20;99.90;;;;;;5098675;28;20020;-86
2021/12/03 03:33:22;;;;;;;41.97;21.43;;;3.20;99.90;;;;;;5080507;28;20055;-86
2021/12/03 03:35:48;;;;;;;43.53;22.67;;;3.30;99.90;;;;;;5081066;28;20032;-85
2021/12/03 03:38:15;;;;;;;48.30;22.87;;;3.20;99.90;;;;;;5080991;28;20515;-86
2021/12/03 03:40:43;;;;;;;51.33;24.47;;;3.30;99.90;;;;;;5064422;28;20489;-85
2021/12/03 03:43:09;;;;;;;50.23;22.10;;;3.30;99.90;;;;;;5064413;28;20123;-85
2021/12/03 03:45:36;;;;;;;48.27;23.00;;;3.30;99.90;;;;;;5080803;28;20066;-86
2021/12/03 03:48:03;;;;;;;43.33;19.77;;;3.30;99.90;;;;;;5081210;28;20024;-88
2021/12/03 03:50:29;;;;;;;48.00;20.63;;;3.30;99.90;;;;;;5081273;28;20024;-86
2021/12/03 03:52:56;;;;;;;41.83;19.27;;;3.30;99.90;;;;;;5099776;28;20028;-86
2021/12/03 03:55:23;;;;;;;38.70;18.90;;;3.30;99.90;;;;;;5064400;28;20046;-87
2021/12/03 03:57:51;;;;;;;48.57;19.67;;;3.30;99.90;;;;;;5080728;28;20036;-86
2021/12/03 04:00:22;;;;;;;47.07;21.40;;;3.30;99.90;;;;;;5081925;28;20032;-87
2021/12/03 04:02:48;;;;;;;46.93;21.10;;;3.40;99.90;;;;;;5081813;28;20070;-87
2021/12/03 04:05:14;;;;;;;50.20;22.30;;;3.40;99.90;;;;;;5064520;28;20028;-85
2021/12/03 04:07:41;;;;;;;44.80;21.23;;;3.40;99.90;;;;;;5064743;28;20119;-86
2021/12/03 04:10:07;;;;;;;45.70;21.33;;;3.30;99.90;;;;;;5082929;28;20054;-86
2021/12/03 04:12:35;;;;;;;41.87;19.37;;;3.40;99.90;;;;;;5065267;28;20127;-87
2021/12/03 04:15:01;;;;;;;44.47;20.63;;;3.40;99.90;;;;;;5100833;28;20035;-87
2021/12/03 04:17:27;;;;;;;46.43;20.10;;;3.30;99.90;;;;;;5082821;28;20028;-87
2021/12/03 04:19:53;;;;;;;43.33;19.93;;;3.40;99.90;;;;;;5064656;28;20051;-86
2021/12/03 04:22:23;;;;;;;42.80;20.03;;;3.40;99.90;;;;;;5064532;28;20036;-86
2021/12/03 04:24:50;;;;;;;40.80;18.53;;;3.30;99.90;;;;;;5064742;28;20139;-87
2021/12/03 04:27:16;;;;;;;38.17;18.93;;;3.40;99.90;;;;;;5080782;28;20036;-86
2021/12/03 04:29:43;;;;;;;40.00;18.53;;;3.40;99.90;;;;;;5064215;28;20045;-86
2021/12/03 04:32:08;;;;;;;42.00;18.60;;;3.40;99.90;;;;;;5064923;28;20115;-86
2021/12/03 04:34:35;;;;;;;42.57;18.03;;;3.40;99.90;;;;;;5064727;28;20457;-85
2021/12/03 04:37:02;;;;;;;38.20;18.40;;;3.40;99.90;;;;;;5081970;28;20043;-87
2021/12/03 04:39:27;;;;;;;38.83;19.03;;;3.40;99.90;;;;;;5064785;28;20042;-87
2021/12/03 04:41:53;;;;;;;43.03;18.40;;;3.40;99.90;;;;;;5081419;28;20130;-87
2021/12/03 04:44:19;;;;;;;41.37;17.67;;;3.40;99.90;;;;;;5065225;28;20024;-86
2021/12/03 04:46:45;;;;;;;34.30;17.03;;;3.40;99.90;;;;;;5082079;28;20475;-85
2021/12/03 04:49:10;;;;;;;34.17;16.23;;;3.40;99.90;;;;;;5081916;28;20095;-86
2021/12/03 04:51:36;;;;;;;32.13;15.63;;;3.50;99.90;;;;;;5100706;28;20020;-87
2021/12/03 04:54:02;;;;;;;31.53;15.50;;;3.40;99.90;;;;;;5081731;28;20502;-87
2021/12/03 04:56:28;;;;;;;29.77;15.10;;;3.50;99.90;;;;;;5082260;28;20195;-87
2021/12/03 04:58:54;;;;;;;31.50;14.63;;;3.50;99.90;;;;;;5100571;28;20192;-87
2021/12/03 05:01:20;;;;;;;31.67;14.47;;;3.50;99.90;;;;;;5101011;28;20039;-87
2021/12/03 05:03:46;;;;;;;27.13;13.87;;;3.50;99.90;;;;;;5066180;28;20032;-86
2021/12/03 05:06:15;;;;;;;29.87;15.53;;;3.50;99.90;;;;;;5082973;28;20028;-87
2021/12/03 05:08:41;;;;;;;32.93;16.77;;;3.50;99.90;;;;;;5082746;28;20024;-86
2021/12/03 05:11:07;;;;;;;34.30;17.07;;;3.50;99.90;;;;;;5066488;28;20024;-87
2021/12/03 05:13:35;;;;;;;34.77;17.60;;;3.50;99.90;;;;;;5082414;28;20123;-86
2021/12/03 05:16:03;;;;;;;34.13;17.43;;;3.50;99.90;;;;;;5083149;28;20050;-86
2021/12/03 05:18:30;;;;;;;32.23;16.50;;;3.50;99.90;;;;;;5100761;28;20542;-88
2021/12/03 05:20:59;;;;;;;27.93;15.70;;;3.50;99.90;;;;;;5066237;28;20070;-86
2021/12/03 05:23:27;;;;;;;30.17;15.80;;;3.60;99.90;;;;;;5101423;28;20370;-87
2021/12/03 05:25:54;;;;;;;29.40;15.73;;;3.60;99.90;;;;;;5066337;28;20090;-87
2021/12/03 05:28:20;;;;;;;29.97;15.13;;;3.60;99.90;;;;;;5100912;28;20381;-86
2021/12/03 05:30:46;;;;;;;28.70;13.67;;;3.60;99.90;;;;;;5083129;28;20034;-87
2021/12/03 05:33:12;;;;;;;40.37;17.80;;;3.60;99.90;;;;;;5066770;28;20052;-86
2021/12/03 05:35:38;;;;;;;29.00;15.30;;;3.60;99.90;;;;;;5067207;28;20028;-87
2021/12/03 05:38:04;;;;;;;29.43;15.00;;;3.60;99.90;;;;;;5066553;28;20028;-87
2021/12/03 05:40:31;;;;;;;32.23;16.07;;;3.60;99.90;;;;;;5083905;28;20085;-86
2021/12/03 05:42:57;;;;;;;31.27;14.57;;;3.60;99.90;;;;;;5067617;28;20028;-87
2021/12/03 05:45:27;;;;;;;31.07;16.00;;;3.60;99.90;;;;;;5067578;28;20208;-88
2021/12/03 05:47:53;;;;;;;33.87;16.17;;;3.50;99.90;;;;;;5084567;28;20496;-86
2021/12/03 05:50:19;;;;;;;36.87;17.00;;;3.50;99.90;;;;;;5067603;28;20024;-87
2021/12/03 05:52:47;;;;;;;35.63;19.80;;;3.60;99.90;;;;;;5101872;28;20044;-88
2021/12/03 05:55:14;;;;;;;36.90;16.13;;;3.60;99.90;;;;;;5101334;28;20039;-87
2021/12/03 05:57:41;;;;;;;43.77;20.97;;;3.60;99.90;;;;;;5081592;28;20066;-87
2021/12/03 06:00:11;;;;;;;42.10;21.13;;;3.60;99.90;;;;;;5063856;28;20023;-86
2021/12/03 06:02:38;;;;;;;46.30;21.43;;;3.60;99.90;;;;;;5067420;28;20032;-88
2021/12/03 06:05:04;;;;;;;42.67;19.47;;;3.60;99.90;;;;;;5081283;28;20111;-87
2021/12/03 06:07:30;;;;;;;38.27;18.83;;;3.60;99.90;;;;;;5058989;28;20032;-86
2021/12/03 06:09:56;;;;;;;37.33;18.47;;;3.50;99.90;;;;;;5059236;28;20156;-86
2021/12/03 06:12:22;;;;;;;36.90;18.17;;;3.60;99.90;;;;;;5061007;28;20073;-87
2021/12/03 06:14:47;;;;;;;39.43;19.27;;;3.60;99.90;;;;;;5077634;28;20114;-86
2021/12/03 06:17:14;;;;;;;38.27;19.33;;;3.60;99.90;;;;;;5059965;28;20246;-86
2021/12/03 06:19:40;;;;;;;40.67;19.67;;;3.70;99.90;;;;;;5058259;28;20113;-86
2021/12/03 06:22:08;;;;;;;42.47;19.83;;;3.60;99.90;;;;;;5058052;28;20055;-87
2021/12/03 06:24:34;;;;;;;47.63;20.47;;;3.70;99.90;;;;;;5060413;28;20036;-86
2021/12/03 06:27:00;;;;;;;42.10;20.63;;;3.70;99.90;;;;;;5082896;28;20111;-86
2021/12/03 06:29:25;;;;;;;45.63;20.43;;;3.70;99.90;;;;;;5081785;28;20090;-86
2021/12/03 06:31:51;;;;;;;39.97;18.47;;;3.70;99.90;;;;;;5094972;28;20024;-85
2021/12/03 06:34:17;;;;;;;41.43;19.00;;;3.70;99.90;;;;;;5058702;28;20060;-86
2021/12/03 06:36:43;;;;;;;41.90;17.93;;;3.70;99.90;;;;;;5058128;28;20528;-86
2021/12/03 06:39:08;;;;;;;40.57;18.47;;;3.70;99.90;;;;;;5058345;28;20115;-85
2021/12/03 06:41:34;;;;;;;43.53;18.77;;;3.80;99.90;;;;;;5057902;28;20032;-85
2021/12/03 06:44:00;;;;;;;40.10;19.33;;;3.80;99.90;;;;;;5074764;28;20069;-85
2021/12/03 06:46:26;;;;;;;36.83;17.93;;;3.80;99.90;;;;;;5058496;28;20028;-86
2021/12/03 06:48:52;;;;;;;34.13;17.60;;;3.80;99.90;;;;;;5074724;28;20231;-85
2021/12/03 06:51:18;;;;;;;38.67;18.03;;;3.70;99.90;;;;;;5077407;28;20024;-85
2021/12/03 06:53:57;;;;;;;41.23;18.40;;;3.70;99.90;;;;;;5078985;28;20028;-86
2021/12/03 06:56:31;;;;;;;34.40;16.47;;;3.80;99.90;;;;;;5078692;28;20032;-86
2021/12/03 06:58:57;;;;;;;42.70;18.37;;;3.80;99.90;;;;;;5063318;28;20238;-86
2021/12/03 07:01:22;;;;;;;38.67;18.60;;;3.80;99.90;;;;;;5063353;28;20032;-86
2021/12/03 07:03:48;;;;;;;41.07;17.70;;;3.90;99.90;;;;;;5062477;28;20123;-86
2021/12/03 07:06:14;;;;;;;41.03;17.50;;;3.80;99.90;;;;;;5062545;28;20463;-86
2021/12/03 07:08:40;;;;;;;38.50;17.93;;;3.80;99.90;;;;;;5080190;28;20028;-87
2021/12/03 07:11:06;;;;;;;39.70;17.50;;;3.90;99.90;;;;;;5080046;28;20068;-86
2021/12/03 07:13:32;;;;;;;38.27;16.47;;;3.90;99.90;;;;;;5079640;28;20048;-86
2021/12/03 07:15:59;;;;;;;35.97;16.73;;;3.90;99.90;;;;;;5062674;28;20036;-86
2021/12/03 07:18:25;;;;;;;36.43;16.30;;;3.90;99.90;;;;;;5063254;28;20028;-86
2021/12/03 07:20:51;;;;;;;41.87;17.70;;;4.00;99.90;;;;;;5063299;28;20503;-86
2021/12/03 07:23:17;;;;;;;39.37;16.17;;;4.00;99.90;;;;;;5079978;28;20070;-86
2021/12/03 07:25:43;;;;;;;36.93;16.53;;;4.00;99.90;;;;;;5097439;28;20597;-87
2021/12/03 07:28:08;;;;;;;36.47;17.20;;;4.00;99.90;;;;;;5061107;28;20114;-86
2021/12/03 07:30:34;;;;;;;32.60;15.80;;;4.00;99.90;;;;;;5078546;28;20028;-86
2021/12/03 07:33:02;;;;;;;35.53;16.17;;;4.00;99.90;;;;;;5077847;28;20054;-87
2021/12/03 07:35:28;;;;;;;28.67;14.57;;;4.00;99.90;;;;;;5063221;28;20039;-86
2021/12/03 07:37:53;;;;;;;37.80;16.50;;;4.00;99.90;;;;;;5077824;28;20028;-86
2021/12/03 07:40:19;;;;;;;32.70;15.50;;;4.10;99.90;;;;;;5077842;28;20435;-86
2021/12/03 07:42:45;;;;;;;33.33;15.90;;;4.10;99.90;;;;;;5096062;28;20110;-86
2021/12/03 07:45:14;;;;;;;36.20;15.70;;;4.00;99.90;;;;;;5078041;28;20123;-86
2021/12/03 07:47:40;;;;;;;34.70;15.63;;;4.00;99.90;;;;;;5061291;28;20028;-87
2021/12/03 07:50:07;;;;;;;31.97;14.77;;;4.00;99.90;;;;;;5078939;28;20090;-86
2021/12/03 07:52:34;;;;;;;36.27;14.20;;;4.00;99.90;;;;;;5081077;28;20036;-86
2021/12/03 07:55:00;;;;;;;31.87;13.63;;;4.10;99.90;;;;;;5063071;28;20499;-86
2021/12/03 07:57:26;;;;;;;32.20;13.33;;;4.10;99.90;;;;;;5063410;28;20082;-86
2021/12/03 07:59:52;;;;;;;29.50;12.60;;;4.10;99.90;;;;;;5079430;28;20557;-87
2021/12/03 08:02:17;;;;;;;25.57;12.10;;;4.10;99.90;;;;;;5095010;28;20024;-86
2021/12/03 08:04:43;;;;;;;34.87;12.93;;;4.10;99.90;;;;;;5077307;28;20082;-86
2021/12/03 08:07:09;;;;;;;27.87;11.17;;;4.10;99.90;;;;;;5061240;28;20479;-87
2021/12/03 08:09:35;;;;;;;26.00;9.90;;;4.10;99.90;;;;;;5095920;28;20516;-86
2021/12/03 08:12:01;;;;;;;25.33;9.47;;;4.10;99.90;;;;;;5078056;28;20476;-86
2021/12/03 08:14:27;;;;;;;23.37;9.67;;;4.10;99.90;;;;;;5077764;28;20077;-87
2021/12/03 08:16:54;;;;;;;26.93;8.83;;;4.10;99.90;;;;;;5077909;28;20024;-86
2021/12/03 08:19:19;;;;;;;24.90;9.00;;;4.10;99.90;;;;;;5077407;28;20429;-86
2021/12/03 08:21:45;;;;;;;21.67;8.00;;;4.20;99.90;;;;;;5077849;28;20028;-87
2021/12/03 08:24:11;;;;;;;19.63;7.63;;;4.10;99.90;;;;;;5061461;28;20036;-86
2021/12/03 08:26:37;;;;;;;22.57;7.40;;;4.10;99.90;;;;;;5077770;28;20069;-86
2021/12/03 08:29:04;;;;;;;22.10;6.90;;;4.20;99.90;;;;;;5061696;28;20024;-86
2021/12/03 08:31:31;;;;;;;26.47;7.47;;;4.20;99.90;;;;;;5077415;28;20122;-86
2021/12/03 08:33:56;;;;;;;22.67;6.83;;;4.20;99.90;;;;;;5061463;28;20488;-86
2021/12/03 08:36:22;;;;;;;19.13;6.00;;;4.20;99.90;;;;;;5077769;28;20032;-86
2021/12/03 08:38:48;;;;;;;23.40;6.27;;;4.20;99.90;;;;;;5060377;28;20036;-86
2021/12/03 08:41:18;;;;;;;14.07;5.50;;;4.20;99.90;;;;;;5077673;28;20062;-86
2021/12/03 08:43:47;;;;;;;19.40;5.97;;;4.20;99.90;;;;;;5078133;28;20400;-86
2021/12/03 08:46:20;;;;;;;18.70;5.23;;;4.20;99.90;;;;;;5077341;28;20032;-86
2021/12/03 08:48:48;;;;;;;16.33;5.80;;;4.20;99.90;;;;;;5060598;28;20027;-87
2021/12/03 08:56:25;;;;;;;15.13;5.03;;;4.30;99.90;;;;;;5097034;28;20040;-86
2021/12/03 08:58:51;;;;;;;18.53;5.67;;;4.30;99.90;;;;;;5060528;28;20028;-86
2021/12/03 09:01:17;;;;;;;21.37;5.57;;;4.30;99.90;;;;;;5060602;28;20057;-87
2021/12/03 09:03:43;;;;;;;23.37;5.30;;;4.30;99.90;;;;;;5076761;28;20110;-86
2021/12/03 09:06:09;;;;;;;17.53;5.03;;;4.30;99.90;;;;;;5060812;28;20500;-86
2021/12/03 09:08:35;;;;;;;17.83;4.93;;;4.30;99.90;;;;;;5077310;28;20060;-86
2021/12/03 09:11:00;;;;;;;20.67;5.30;;;4.30;99.90;;;;;;5060706;28;20050;-86
2021/12/03 09:13:26;;;;;;;18.20;5.73;;;4.30;99.90;;;;;;5060268;28;20027;-86
2021/12/03 09:16:10;;;;;;;16.17;5.40;;;4.30;99.90;;;;;;5096208;28;20028;-87
2021/12/03 09:18:41;;;;;;;21.63;5.47;;;4.30;99.90;;;;;;5077050;28;20068;-86
2021/12/03 09:21:21;;;;;;;15.50;5.30;;;4.40;99.90;;;;;;5076310;28;20036;-87
2021/12/03 09:26:29;;;;;;;15.30;5.33;;;4.30;99.90;;;;;;5077242;28;20420;-86
2021/12/03 09:29:06;;;;;;;15.60;4.67;;;4.40;99.90;;;;;;5076968;28;20531;-87
2021/12/03 09:31:36;;;;;;;13.80;5.50;;;4.40;99.90;;;;;;5095440;28;20111;-86
2021/12/03 09:34:08;;;;;;;17.60;5.37;;;4.40;99.90;;;;;;5060412;28;20032;-86
2021/12/03 09:36:34;;;;;;;19.10;5.50;;;4.40;99.90;;;;;;5060687;28;20400;-86
2021/12/03 09:39:00;;;;;;;14.07;4.80;;;4.40;99.90;;;;;;5095087;28;20031;-87
2021/12/03 09:41:26;;;;;;;14.47;5.10;;;4.40;99.90;;;;;;5076865;28;20024;-87
2021/12/03 09:43:54;;;;;;;19.23;5.37;;;4.50;99.90;;;;;;5076541;28;20492;-86
2021/12/03 09:51:18;;;;;;;16.63;4.97;;;4.50;99.90;;;;;;5076472;28;20039;-87
2021/12/03 09:56:12;;;;;;;19.30;4.90;;;4.50;99.90;;;;;;5076578;28;20031;-87
2021/12/03 10:01:39;;;;;;;20.07;4.90;;;4.50;99.90;;;;;;5077419;28;20062;-87
2021/12/03 10:04:42;;;;;;;13.17;4.27;;;4.60;99.90;;;;;;5060616;28;20036;-87
2021/12/03 10:17:44;;;;;;;17.73;4.57;;;4.70;99.90;;;;;;5077571;28;20123;-86
2021/12/03 10:20:24;;;;;;;14.13;4.30;;;4.70;99.90;;;;;;5061946;28;20035;-87
2021/12/03 10:36:49;;;;;;;12.90;4.20;;;4.90;99.90;;;;;;5080498;28;20500;-86
2021/12/03 10:55:01;;;;;;;15.00;4.15;;;4.90;99.90;;;;;;5081947;28;20473;-86
2021/12/03 11:00:40;;;;;;;18.50;5.60;;;4.90;99.90;;;;;;5082568;28;20034;-87
2021/12/03 11:14:55;;;;;;;16.23;4.10;;;4.90;99.90;;;;;;5083868;28;20294;-87
2021/12/03 11:26:02;;;;;;;14.07;4.20;;;4.80;99.90;;;;;;5084001;28;20400;-86
2021/12/03 14:48:09;;;;;;;4.53;1.93;;;5.40;99.90;;;;;;5093323;28;20016;-86
2021/12/03 14:55:33;;;;;;;5.10;2.23;;;5.20;99.90;;;;;;5073761;28;20556;-86
2021/12/03 14:58:08;;;;;;;6.27;2.40;;;5.20;99.90;;;;;;5057192;28;20024;-86
2021/12/03 15:00:58;;;;;;;8.00;2.87;;;5.10;99.90;;;;;;5073809;28;20435;-86
2021/12/03 15:09:08;;;;;;;8.60;3.10;;;5.00;99.90;;;;;;5091884;28;20495;-85
2021/12/03 15:32:47;;;;;;;8.30;3.13;;;4.70;99.90;;;;;;5077180;28;20032;-86
2021/12/03 15:35:18;;;;;;;6.77;2.73;;;4.70;99.90;;;;;;5077354;28;20503;-86
2021/12/03 16:09:46;;;;;;;9.63;3.07;;;4.80;99.90;;;;;;5076604;28;20420;-86
2021/12/03 16:23:08;;;;;;;8.30;3.53;;;4.90;99.90;;;;;;5075832;28;20038;-86
2021/12/03 16:47:35;;;;;;;8.50;2.38;;;4.90;99.90;;;;;;5076625;28;20046;-86
2021/12/03 16:52:26;;;;;;;7.83;2.50;;;4.90;99.90;;;;;;5107462;28;20012;-85
2021/12/03 16:54:56;;;;;;;6.30;2.73;;;4.90;99.90;;;;;;5089155;28;20051;-87
2021/12/03 16:57:28;;;;;;;6.03;2.20;;;4.90;99.90;;;;;;5089435;28;20057;-87
2021/12/03 16:59:55;;;;;;;5.93;2.30;;;4.90;99.90;;;;;;5108352;28;20087;-87
2021/12/03 17:02:28;;;;;;;6.97;2.30;;;4.90;99.90;;;;;;5108373;28;20032;-85
2021/12/03 17:05:23;;;;;;;7.93;2.30;;;5.00;99.90;;;;;;5089202;28;20036;-86
2021/12/03 17:12:53;;;;;;;6.97;2.57;;;5.00;99.90;;;;;;5087722;28;20484;-86
2021/12/03 17:45:36;;;;;;;7.90;3.50;;;4.80;99.90;;;;;;5075712;28;20036;-87
2021/12/03 17:48:00;;;;;;;6.33;2.60;;;4.90;99.90;;;;;;5079884;28;20093;-86
2021/12/03 17:53:26;;;;;;;8.07;3.27;;;4.80;99.90;;;;;;5080796;28;20036;-86
2021/12/03 17:56:10;;;;;;;6.47;2.80;;;4.80;99.90;;;;;;5059161;28;1105137;-86
2021/12/03 18:08:56;;;;;;;7.73;2.80;;;4.80;99.90;;;;;;5080596;28;20028;-86
2021/12/03 18:45:02;;;;;;;7.70;3.43;;;4.80;99.90;;;;;;5095650;28;20036;-87
2021/12/03 18:52:44;;;;;;;11.17;6.07;;;4.70;99.90;;;;;;5080092;28;20110;-87
2021/12/03 18:55:05;;;;;;;10.63;4.83;;;4.80;99.90;;;;;;5079246;28;20036;-87
2021/12/03 18:57:34;;;;;;;10.83;5.07;;;4.80;99.90;;;;;;5080320;28;20032;-88
2021/12/03 19:00:07;;;;;;;9.40;4.80;;;4.80;99.90;;;;;;5064315;28;20183;-86
2021/12/03 19:02:33;;;;;;;8.93;5.23;;;4.80;99.90;;;;;;5082986;28;20036;-88
2021/12/03 19:05:50;;;;;;;12.43;4.83;;;4.80;99.90;;;;;;5064792;28;20028;-86
2021/12/03 19:10:27;;;;;;;7.77;4.20;;;4.80;99.90;;;;;;5080356;28;20177;-86
2021/12/03 19:13:05;;;;;;;8.23;4.23;;;4.80;99.90;;;;;;5061037;28;20023;-87
2021/12/03 19:15:32;;;;;;;8.93;4.23;;;4.80;99.90;;;;;;5077641;28;20131;-86
2021/12/03 19:18:01;;;;;;;7.33;4.10;;;4.80;99.90;;;;;;5077401;28;20024;-85
2021/12/03 19:20:30;;;;;;;;;;;4.80;99.90;;;;;;5077938;28;20489;-86
2021/12/03 19:22:55;;;;;;;8.17;4.10;;;4.80;99.90;;;;;;5077520;28;19904;-86
2021/12/03 19:25:21;;;;;;;7.03;4.30;;;4.80;99.90;;;;;;5077475;28;20032;-86
2021/12/03 19:27:47;;;;;;;6.67;4.50;;;4.80;99.90;;;;;;5060465;28;20035;-86
2021/12/03 19:30:15;;;;;;;9.57;5.00;;;4.80;99.90;;;;;;5060225;28;20536;-85
2021/12/03 19:32:41;;;;;;;7.03;4.90;;;4.80;99.90;;;;;;5060494;28;20024;-85
2021/12/03 19:35:08;;;;;;;10.27;4.93;;;4.90;99.90;;;;;;5060515;28;20030;-86
2021/12/03 19:37:35;;;;;;;6.70;4.60;;;4.80;99.90;;;;;;5076906;28;20445;-86
2021/12/03 19:40:07;;;;;;;9.70;5.23;;;4.90;99.90;;;;;;5077284;28;20031;-86
2021/12/03 19:42:37;;;;;;;10.23;5.30;;;4.80;99.90;;;;;;5060743;28;20047;-85
2021/12/03 19:45:07;;;;;;;8.87;4.70;;;4.80;99.90;;;;;;5076909;28;20448;-85
2021/12/03 19:47:50;;;;;;;8.27;4.60;;;4.90;99.90;;;;;;5060442;28;20496;-85
2021/12/03 19:50:59;;;;;;;5.97;4.17;;;4.80;99.90;;;;;;5060170;28;20028;-86
2021/12/03 19:53:12;;;;;;;5.97;3.97;;;4.80;99.90;;;;;;5065933;28;20063;-85
2021/12/03 19:55:40;;;;;;;7.20;4.70;;;4.90;99.90;;;;;;5076922;28;20039;-86
2021/12/03 19:58:08;;;;;;;5.90;3.63;;;4.90;99.90;;;;;;5059646;28;20024;-85
2021/12/03 20:00:35;;;;;;;9.70;3.90;;;4.90;99.90;;;;;;5076908;28;20028;-86
2021/12/03 20:03:00;;;;;;;6.77;3.47;;;4.90;99.90;;;;;;5076953;28;20036;-86
2021/12/03 20:05:26;;;;;;;8.83;3.90;;;4.90;99.90;;;;;;5059617;28;20060;-85
2021/12/03 20:07:54;;;;;;;5.93;3.80;;;4.90;99.90;;;;;;5059610;28;20028;-86
2021/12/03 20:10:22;;;;;;;5.70;3.50;;;4.90;99.90;;;;;;5076519;28;20032;-86
2021/12/03 20:12:49;;;;;;;8.20;3.20;;;4.90;99.90;;;;;;5076630;28;20028;-85
2021/12/03 20:15:39;;;;;;;7.53;3.77;;;5.00;99.90;;;;;;5076307;28;20035;-86
2021/12/03 20:18:41;;;;;;;7.13;3.60;;;5.00;99.90;;;;;;5075958;28;20412;-86
2021/12/03 20:20:57;;;;;;;5.37;3.60;;;5.00;99.90;;;;;;5072227;28;20036;-86
2021/12/03 20:26:11;;;;;;;6.17;3.20;;;5.00;99.90;;;;;;5076256;28;20496;-86
2021/12/03 20:28:47;;;;;;;7.60;3.13;;;5.00;99.90;;;;;;5059434;28;20046;-85
2021/12/03 20:31:16;;;;;;;5.80;3.07;;;5.00;99.90;;;;;;5076522;28;20074;-86
2021/12/03 20:38:54;;;;;;;4.73;2.63;;;5.00;99.90;;;;;;5075721;28;20500;-86
2021/12/03 20:41:35;;;;;;;5.27;3.00;;;5.00;99.90;;;;;;5059477;28;20529;-86
2021/12/03 20:52:18;;;;;;;4.70;2.70;;;5.00;99.90;;;;;;5059555;28;20131;-86